Portada
METAR-TAF:

METAR-TAF

Aeropuertos :

Huntsville, Alabama, Estados Unidos

latitud: 34-51-41N, longitud: 086-33-26W, altitud: 230 m

Observación

El informe se hizo hace 22 minutos, a las 21:15 UTC
Viento 6 kt del norte-noreste
Temperatura 20°C
Humedad 30%
Presión 1017 hPa
Visibilidad: 16.1 km
Cielo despejado

METAR: KMDQ 022115Z AUTO 03006KT 10SM CLR 20/02 A3004 RMK A02 T01970022

Hora: 16:37 (21:37 UTC)


TAF: falta

Observaciones y pronósticos meteorológicos de más de 4000 aeropuertos (mensajes METAR y TAF).

Los puntos amarillos y rojos representan las estaciones disponibles.

Ponga el ratón en el punto deseado para ver el nombre de la estación.

Haga clic para ver las observaciones y los pronósticos meteorológicos.

Para cambiar el mapa : haga clic en los botones verdes con una cruz de color negro para hacer un zoom, en el botón verde con un guión para alejar o en las flechas verdes para mapas adyacentes.


METAR-TAF: